^^
Station Historical Data
Daily Summary for February 13, 2017 Units:  English    Metric   Both
« Previous Day
Next Day »
Daily Weekly Monthly Yearly Custom
  High: Low: Average:
Temperature: 35.7 °F 27.8 °F 32.5 °F
Dew Point: 33.3 °F 17.9 °F 23.1 °F
Humidity: 97% 54% 69%
Wind Speed: 12.0mph 0.0mph 4.5mph
Wind Gust: 33.0mph - -
Wind- - South
Pressure: 29.99 in 29.59 in -
Precipitation: 0.00 in    
Historical Graphs
 
 
Tabular Data for February 13, 2017
Time Temperature Dew Point Pressure Wind Wind Speed Wind Gust Humidity Rainfall Rate (Hourly) Conditions
00:00 30.2 °F 29.4 °F 29.61 in Calm   2.0 mph 97% 0.00 in -SN
00:09 30.2 °F 29.5 °F 29.61 in SW 1.0 mph 6.0 mph 97% 0.00 in -SN
00:20 31.0 °F 30.3 °F 29.60 in Calm   4.0 mph 97% 0.00 in -SN
00:30 31.5 °F 30.8 °F 29.60 in SSW 1.0 mph 6.0 mph 97% 0.00 in -SN
00:40 31.3 °F 30.5 °F 29.60 in Calm   2.0 mph 97% 0.00 in -SN
00:50 31.2 °F 30.2 °F 29.59 in Calm   1.0 mph 96% 0.00 in -SN
01:10 31.3 °F 30.3 °F 29.59 in South 1.0 mph 3.0 mph 96% 0.00 in -SN
01:20 31.5 °F 30.5 °F 29.59 in Calm   1.0 mph 96% 0.00 in -SN
01:30 31.6 °F 30.6 °F 29.60 in Calm   1.0 mph 96% 0.00 in -SN
01:40 31.9 °F 30.9 °F 29.61 in SSW 2.0 mph 5.0 mph 96% 0.00 in -SN
01:50 32.7 °F 32.0 °F 29.61 in SW 2.0 mph 7.0 mph 97% 0.00 in -SN
02:00 33.5 °F 32.7 °F 29.61 in SW 2.0 mph 10.0 mph 97% 0.00 in -SN
02:10 34.1 °F 33.3 °F 29.61 in SSW 2.0 mph 10.0 mph 97% 0.00 in -SN
02:20 34.2 °F 33.2 °F 29.61 in East 2.0 mph 7.0 mph 96% 0.00 in -SN
02:40 34.4 °F 33.1 °F 29.61 in Calm   5.0 mph 95% 0.00 in -SN
02:50 34.8 °F 33.3 °F 29.62 in NE 2.0 mph 14.0 mph 94% 0.00 in -SN
03:00 35.0 °F 32.6 °F 29.62 in North 5.0 mph 16.0 mph 91% 0.00 in -SN
03:10 35.1 °F 31.3 °F 29.63 in NE 2.0 mph 17.0 mph 86% 0.00 in -SN
03:20 35.1 °F 30.8 °F 29.63 in NNW 6.0 mph 12.0 mph 84% 0.00 in -SN
03:30 35.1 °F 29.9 °F 29.63 in North 1.0 mph 13.0 mph 81% 0.00 in -SN
03:40 35.0 °F 29.8 °F 29.64 in NNW 3.0 mph 9.0 mph 81% 0.00 in -SN
03:50 35.0 °F 29.5 °F 29.64 in NNE 5.0 mph 15.0 mph 80% 0.00 in -SN
04:00 35.1 °F 28.9 °F 29.65 in NNE 2.0 mph 12.0 mph 78% 0.00 in -SN
04:10 35.0 °F 28.8 °F 29.65 in NNW 1.0 mph 16.0 mph 78% 0.00 in -SN
04:20 34.7 °F 28.2 °F 29.66 in NW 5.0 mph 13.0 mph 77% 0.00 in -SN
04:30 34.5 °F 27.7 °F 29.66 in West 3.0 mph 12.0 mph 76% 0.00 in -SN
04:40 34.4 °F 26.3 °F 29.67 in WNW 7.0 mph 25.0 mph 72% 0.00 in -SN
04:50 34.1 °F 25.4 °F 29.67 in West 5.0 mph 25.0 mph 70% 0.00 in -SN
05:00 33.8 °F 25.1 °F 29.67 in West 2.0 mph 14.0 mph 70% 0.00 in -SN
05:10 33.6 °F 25.5 °F 29.68 in WNW 5.0 mph 15.0 mph 72% 0.00 in -SN
05:20 33.2 °F 25.5 °F 29.68 in SSW 5.0 mph 12.0 mph 73% 0.00 in -SN
05:30 33.0 °F 24.6 °F 29.68 in SW 9.0 mph 20.0 mph 71% 0.00 in -SN
05:40 32.8 °F 24.4 °F 29.68 in SW 6.0 mph 20.0 mph 71% 0.00 in -SN
05:49 32.5 °F 23.8 °F 29.68 in West 6.0 mph 21.0 mph 70% 0.00 in -SN
06:00 32.4 °F 23.7 °F 29.69 in WNW 6.0 mph 18.0 mph 70% 0.00 in -SN
06:10 32.3 °F 24.0 °F 29.68 in SSW 6.0 mph 20.0 mph 71% 0.00 in -SN
06:19 32.3 °F 23.6 °F 29.69 in ESE 10.0 mph 17.0 mph 70% 0.00 in -SN
06:30 32.3 °F 23.9 °F 29.68 in WSW 6.0 mph 21.0 mph 71% 0.00 in -SN
06:40 32.1 °F 24.1 °F 29.68 in SW 3.0 mph 14.0 mph 72% 0.00 in -SN
06:50 31.9 °F 23.9 °F 29.69 in West 7.0 mph 25.0 mph 72% 0.00 in -SN
07:00 32.0 °F 23.7 °F 29.68 in NW 6.0 mph 20.0 mph 71% 0.00 in -SN
07:10 32.0 °F 24.0 °F 29.69 in WSW 7.0 mph 22.0 mph 72% 0.00 in -SN
07:19 31.8 °F 23.8 °F 29.70 in SSW 7.0 mph 16.0 mph 72% 0.00 in -SN
07:32 31.8 °F 23.8 °F 29.70 in South 2.0 mph 23.0 mph 72% 0.00 in -SN
07:39 31.9 °F 23.9 °F 29.71 in WSW 3.0 mph 17.0 mph 72% 0.00 in -SN
07:49 31.9 °F 23.6 °F 29.70 in West 5.0 mph 24.0 mph 71% 0.00 in -SN
08:00 31.8 °F 23.8 °F 29.71 in ESE 5.0 mph 20.0 mph 72% 0.00 in -SN
08:09 31.7 °F 23.7 °F 29.72 in South 7.0 mph 23.0 mph 72% 0.00 in -SN
08:19 31.8 °F 23.8 °F 29.72 in SSW 6.0 mph 20.0 mph 72% 0.00 in -SN
08:30 32.1 °F 23.7 °F 29.72 in SW 7.0 mph 20.0 mph 71% 0.00 in -SN
08:39 32.4 °F 23.4 °F 29.73 in SW 6.0 mph 20.0 mph 69% 0.00 in -SN
08:50 32.6 °F 22.8 °F 29.73 in SSE 6.0 mph 14.0 mph 67% 0.00 in -SN
09:00 32.9 °F 22.8 °F 29.72 in North 5.0 mph 22.0 mph 66% 0.00 in -SN
09:09 33.1 °F 23.3 °F 29.72 in North 6.0 mph 20.0 mph 67% 0.00 in -SN
09:20 33.2 °F 23.1 °F 29.73 in SW 10.0 mph 27.0 mph 66% 0.00 in -SN
09:30 33.4 °F 22.9 °F 29.73 in NNW 8.0 mph 25.0 mph 65% 0.00 in -SN
09:39 33.6 °F 23.1 °F 29.73 in NW 7.0 mph 20.0 mph 65% 0.00 in -SN
09:49 33.6 °F 23.5 °F 29.73 in NNE 5.0 mph 24.0 mph 66% 0.00 in -SN
10:00 33.7 °F 23.2 °F 29.74 in North 7.0 mph 26.0 mph 65% 0.00 in -SN
10:09 33.7 °F 22.8 °F 29.75 in ENE 7.0 mph 20.0 mph 64% 0.00 in -SN
10:19 33.7 °F 22.1 °F 29.76 in NNE 10.0 mph 24.0 mph 62% 0.00 in -SN
10:30 33.8 °F 22.9 °F 29.77 in West 6.0 mph 18.0 mph 64% 0.00 in -SN
10:39 33.7 °F 22.4 °F 29.77 in NW 3.0 mph 17.0 mph 63% 0.00 in -SN
10:49 34.1 °F 22.0 °F 29.77 in NNE 5.0 mph 25.0 mph 61% 0.00 in -SN
11:00 34.3 °F 21.8 °F 29.77 in NW 6.0 mph 23.0 mph 60% 0.00 in -SN
11:09 34.5 °F 22.0 °F 29.78 in North 9.0 mph 29.0 mph 60% 0.00 in -SN
11:19 34.3 °F 21.8 °F 29.78 in North 7.0 mph 23.0 mph 60% 0.00 in -SN
11:30 34.3 °F 21.4 °F 29.79 in North 3.0 mph 20.0 mph 59% 0.00 in -SN
11:39 34.0 °F 21.1 °F 29.80 in NNE 6.0 mph 24.0 mph 59% 0.00 in -SN
11:49 33.7 °F 21.3 °F 29.81 in NNW 6.0 mph 23.0 mph 60% 0.00 in -SN
12:00 33.5 °F 21.5 °F 29.81 in North 5.0 mph 16.0 mph 61% 0.00 in -SN
12:09 33.6 °F 21.2 °F 29.80 in North 9.0 mph 24.0 mph 60% 0.00 in -SN
12:19 33.8 °F 21.7 °F 29.80 in NE 9.0 mph 20.0 mph 61% 0.00 in -SN
12:30 33.8 °F 21.3 °F 29.80 in NNE 5.0 mph 20.0 mph 60% 0.00 in -SN
12:40 34.5 °F 21.6 °F 29.80 in NNW 3.0 mph 20.0 mph 59% 0.00 in -SN
12:50 34.7 °F 21.0 °F 29.80 in NW 5.0 mph 23.0 mph 57% 0.00 in -SN
13:00 35.0 °F 21.3 °F 29.80 in NE 6.0 mph 22.0 mph 57% 0.00 in -SN
13:10 35.5 °F 21.8 °F 29.80 in NW 6.0 mph 21.0 mph 57% 0.00 in -SN
13:20 35.7 °F 21.5 °F 29.81 in NNW 6.0 mph 16.0 mph 56% 0.00 in -SN
13:40 35.5 °F 20.9 °F 29.82 in North 8.0 mph 26.0 mph 55% 0.00 in -SN
13:50 35.4 °F 21.2 °F 29.82 in North 8.0 mph 33.0 mph 56% 0.00 in -SN
14:00 35.4 °F 20.4 °F 29.83 in NE 8.0 mph 31.0 mph 54% 0.00 in -SN
14:10 35.5 °F 20.9 °F 29.82 in North 12.0 mph 26.0 mph 55% 0.00 in -SN
14:20 35.5 °F 20.5 °F 29.82 in NNE 6.0 mph 24.0 mph 54% 0.00 in -SN
14:30 35.3 °F 21.1 °F 29.83 in North 9.0 mph 22.0 mph 56% 0.00 in -SN
14:40 35.1 °F 20.1 °F 29.83 in NNW 5.0 mph 32.0 mph 54% 0.00 in -SN
14:50 35.2 °F 20.6 °F 29.83 in NNW 7.0 mph 18.0 mph 55% 0.00 in -SN
15:00 35.5 °F 20.5 °F 29.83 in North 8.0 mph 27.0 mph 54% 0.00 in -SN
15:10 35.5 °F 20.9 °F 29.84 in North 6.0 mph 20.0 mph 55% 0.00 in -SN
15:30 35.3 °F 20.3 °F 29.83 in North 6.0 mph 31.0 mph 54% 0.00 in -SN
15:40 35.1 °F 20.5 °F 29.84 in NNW 9.0 mph 24.0 mph 55% 0.00 in -SN
15:50 34.9 °F 19.9 °F 29.84 in North 10.0 mph 23.0 mph 54% 0.00 in -SN
16:00 34.8 °F 20.3 °F 29.85 in North 5.0 mph 23.0 mph 55% 0.00 in -SN
16:10 34.8 °F 19.8 °F 29.87 in North 7.0 mph 20.0 mph 54% 0.00 in -SN
16:20 34.7 °F 20.2 °F 29.88 in North 2.0 mph 18.0 mph 55% 0.00 in -SN
16:30 34.4 °F 19.4 °F 29.88 in North 8.0 mph 20.0 mph 54% 0.00 in -SN
16:40 33.8 °F 19.7 °F 29.88 in NW 5.0 mph 26.0 mph 56% 0.00 in -SN
16:50 33.5 °F 19.9 °F 29.87 in North 6.0 mph 25.0 mph 57% 0.00 in -SN
17:00 33.2 °F 20.0 °F 29.88 in NE 2.0 mph 25.0 mph 58% 0.00 in -SN
17:10 33.0 °F 19.8 °F 29.90 in East 8.0 mph 21.0 mph 58% 0.00 in -SN
17:20 32.5 °F 19.7 °F 29.91 in NNE 8.0 mph 21.0 mph 59% 0.00 in -SN
17:30 32.1 °F 20.2 °F 29.91 in NE 6.0 mph 14.0 mph 61% 0.00 in -SN
17:40 31.9 °F 19.9 °F 29.92 in NNW 6.0 mph 18.0 mph 61% 0.00 in -SN
17:50 31.7 °F 20.2 °F 29.92 in NNW 8.0 mph 20.0 mph 62% 0.00 in -SN
18:00 31.5 °F 20.0 °F 29.93 in NNW 6.0 mph 14.0 mph 62% 0.00 in -SN
18:10 31.4 °F 19.9 °F 29.94 in NNW 6.0 mph 22.0 mph 62% 0.00 in -SN
18:20 31.3 °F 20.1 °F 29.94 in NNW 5.0 mph 17.0 mph 63% 0.00 in -SN
18:30 31.0 °F 20.3 °F 29.94 in NNE 1.0 mph 17.0 mph 64% 0.00 in -SN
18:40 30.9 °F 20.5 °F 29.95 in NNW 3.0 mph 20.0 mph 65% 0.00 in -SN
18:50 30.7 °F 20.0 °F 29.95 in North 1.0 mph 15.0 mph 64% 0.00 in -SN
19:00 30.6 °F 19.9 °F 29.95 in NNE 2.0 mph 17.0 mph 64% 0.00 in -SN
19:10 30.4 °F 19.7 °F 29.95 in NE 2.0 mph 12.0 mph 64% 0.00 in -SN
19:20 30.4 °F 19.3 °F 29.95 in NNE 2.0 mph 15.0 mph 63% 0.00 in -SN
19:30 30.2 °F 18.7 °F 29.96 in North 3.0 mph 14.0 mph 62% 0.00 in -SN
19:40 30.1 °F 18.3 °F 29.95 in NNE 2.0 mph 15.0 mph 61% 0.00 in -SN
19:50 30.0 °F 18.2 °F 29.95 in NNE 6.0 mph 14.0 mph 61% 0.00 in -SN
20:00 29.8 °F 18.0 °F 29.96 in NE 1.0 mph 12.0 mph 61% 0.00 in -SN
20:10 29.7 °F 17.9 °F 29.96 in WSW 2.0 mph 12.0 mph 61% 0.00 in -SN
20:20 29.5 °F 18.1 °F 29.96 in NNE 3.0 mph 12.0 mph 62% 0.00 in -SN
20:40 29.3 °F 18.3 °F 29.97 in NW 1.0 mph 12.0 mph 63% 0.00 in -SN
21:00 29.0 °F 18.3 °F 29.98 in NE 2.0 mph 33.0 mph 64% 0.00 in -SN
21:10 28.9 °F 18.6 °F 29.98 in Calm   8.0 mph 65% 0.00 in -SN
21:20 28.8 °F 18.5 °F 29.98 in NNW 1.0 mph 10.0 mph 65% 0.00 in -SN
21:30 28.7 °F 18.8 °F 29.98 in ESE 3.0 mph 8.0 mph 66% 0.00 in -SN
21:40 28.7 °F 18.7 °F 29.99 in North 2.0 mph 12.0 mph 66% 0.00 in -SN
21:50 28.6 °F 19.0 °F 29.99 in NE 3.0 mph 7.0 mph 67% 0.00 in -SN
22:00 28.5 °F 18.9 °F 29.99 in NNE 2.0 mph 10.0 mph 67% 0.00 in -SN
22:10 28.6 °F 19.4 °F 29.99 in NNW 3.0 mph 12.0 mph 68% 0.00 in -SN
22:20 28.7 °F 19.5 °F 29.98 in NE 2.0 mph 12.0 mph 68% 0.00 in -SN
22:30 28.6 °F 19.4 °F 29.98 in NNE 2.0 mph 12.0 mph 68% 0.00 in -SN
22:40 28.6 °F 19.7 °F 29.98 in NNE 3.0 mph 10.0 mph 69% 0.00 in -SN
22:50 28.6 °F 19.7 °F 29.98 in North 1.0 mph 8.0 mph 69% 0.00 in -SN
23:00 28.6 °F 20.1 °F 29.98 in North 1.0 mph 12.0 mph 70% 0.00 in -SN
23:10 28.4 °F 19.9 °F 29.99 in North 1.0 mph 12.0 mph 70% 0.00 in -SN
23:20 28.2 °F 20.0 °F 29.99 in Calm   3.0 mph 71% 0.00 in -SN
23:30 28.1 °F 19.9 °F 29.99 in West 1.0 mph 6.0 mph 71% 0.00 in -SN
23:40 27.8 °F 19.9 °F 29.99 in South 1.0 mph 12.0 mph 72% 0.00 in -SN
23:50 28.0 °F 19.8 °F 29.99 in NE 1.0 mph 10.0 mph 71% 0.00 in -SN
TarryTown NY Weather
Compliments of Weather Underground - 1.75 mb